Time;durP1;ratioP1;P1;durP2;ratioP2;P2;SDS_P1;SDS_P2;PMS_P1;PMS_P2;Temp;Humidity;BMP_temperature;BMP_pressure;BME280_temperature;BME280_humidity;BME280_pressure;Samples;Min_cycle;Max_cycle;Signal;HPM_P1;HPM_P2
2022/06/28 00:00:01;;;;;;;34.10;24.08;;;;;;;;;;5052761;28;20070;-79
2022/06/28 00:02:27;;;;;;;40.28;24.42;;;;;;;;;;5052917;28;20056;-79
2022/06/28 00:04:53;;;;;;;36.75;24.88;;;;;;;;;;5035109;28;20341;-79
2022/06/28 00:07:19;;;;;;;33.50;23.10;;;;;;;;;;5053057;28;20052;-79
2022/06/28 00:09:45;;;;;;;33.15;23.48;;;;;;;;;;5052833;28;20037;-79
2022/06/28 00:12:11;;;;;;;35.10;23.20;;;;;;;;;;5052550;28;20049;-79
2022/06/28 00:17:22;;;;;;;35.08;23.92;;;;;;;;;;5052909;28;20150;-78
2022/06/28 00:19:48;;;;;;;37.03;25.38;;;;;;;;;;5033425;28;20408;-79
2022/06/28 00:22:14;;;;;;;32.67;21.35;;;;;;;;;;5033313;28;20092;-79
2022/06/28 00:24:40;;;;;;;33.85;23.02;;;;;;;;;;5032511;28;20057;-79
2022/06/28 00:27:07;;;;;;;41.42;26.55;;;;;;;;;;5033353;28;20072;-79
2022/06/28 00:29:33;;;;;;;39.83;24.83;;;;;;;;;;5033135;28;20041;-79
2022/06/28 00:31:59;;;;;;;41.53;26.67;;;;;;;;;;5051928;28;20048;-79
2022/06/28 00:34:25;;;;;;;31.48;21.25;;;;;;;;;;5052648;28;20042;-79
2022/06/28 00:36:51;;;;;;;35.65;24.52;;;;;;;;;;5052422;28;20440;-79
2022/06/28 00:39:17;;;;;;;33.60;22.02;;;;;;;;;;5034382;28;20504;-79
2022/06/28 00:41:43;;;;;;;29.70;19.45;;;;;;;;;;5052473;28;20132;-79
2022/06/28 00:44:13;;;;;;;25.73;19.10;;;;;;;;;;5017872;28;20049;-79
2022/06/28 00:46:39;;;;;;;27.65;21.10;;;;;;;;;;5052468;28;20069;-79
2022/06/28 00:49:06;;;;;;;35.08;23.70;;;;;;;;;;5052095;28;20542;-79
2022/06/28 00:51:34;;;;;;;35.78;25.10;;;;;;;;;;5052097;28;20492;-79
2022/06/28 00:54:01;;;;;;;33.28;22.40;;;;;;;;;;5052045;28;20092;-79
2022/06/28 00:56:27;;;;;;;41.67;26.50;;;;;;;;;;5052052;28;20041;-79
2022/06/28 00:58:55;;;;;;;43.60;27.98;;;;;;;;;;5052147;28;20052;-79
2022/06/28 01:01:22;;;;;;;42.42;28.02;;;;;;;;;;5052296;28;20136;-79
2022/06/28 01:03:49;;;;;;;35.58;24.60;;;;;;;;;;5052103;28;20045;-79
2022/06/28 01:06:15;;;;;;;39.38;26.98;;;;;;;;;;5047324;28;20516;-79
2022/06/28 01:08:41;;;;;;;43.63;29.50;;;;;;;;;;5043918;28;20045;-78
2022/06/28 01:11:20;;;;;;;38.50;27.02;;;;;;;;;;5051833;28;20053;-79
2022/06/28 01:13:53;;;;;;;41.92;26.55;;;;;;;;;;5052004;28;20081;-78
2022/06/28 01:16:20;;;;;;;38.20;25.80;;;;;;;;;;5052123;28;20141;-79
2022/06/28 01:18:47;;;;;;;45.28;25.55;;;;;;;;;;5052032;28;20045;-79
2022/06/28 01:21:14;;;;;;;31.98;22.13;;;;;;;;;;5033567;28;20488;-79
2022/06/28 01:23:43;;;;;;;43.15;27.95;;;;;;;;;;5032616;28;20084;-79
2022/06/28 01:26:13;;;;;;;39.15;25.00;;;;;;;;;;5033121;28;20404;-78
2022/06/28 01:28:39;;;;;;;36.20;25.85;;;;;;;;;;5031106;28;20048;-78
2022/06/28 01:31:06;;;;;;;31.50;23.77;;;;;;;;;;5030842;28;20069;-78
2022/06/28 01:33:33;;;;;;;35.53;23.67;;;;;;;;;;5034610;28;20053;-79
2022/06/28 01:35:59;;;;;;;32.50;22.92;;;;;;;;;;5036146;28;20132;-79
2022/06/28 01:38:27;;;;;;;36.15;23.17;;;;;;;;;;5036246;28;20044;-79
2022/06/28 01:40:53;;;;;;;40.47;24.23;;;;;;;;;;5036048;28;20041;-78
2022/06/28 01:43:19;;;;;;;36.33;24.83;;;;;;;;;;5036368;28;20041;-78
2022/06/28 01:45:45;;;;;;;39.90;25.70;;;;;;;;;;5036393;28;20037;-79
2022/06/28 01:48:12;;;;;;;34.85;23.98;;;;;;;;;;5054192;28;20511;-78
2022/06/28 01:50:38;;;;;;;36.60;23.05;;;;;;;;;;5043644;28;20471;-79
2022/06/28 01:53:04;;;;;;;30.10;21.35;;;;;;;;;;5035985;28;20055;-78
2022/06/28 01:55:30;;;;;;;28.55;21.15;;;;;;;;;;5036142;28;20045;-78
2022/06/28 01:57:56;;;;;;;30.13;20.90;;;;;;;;;;5036039;28;20048;-80
2022/06/28 02:00:23;;;;;;;34.45;23.10;;;;;;;;;;5035949;28;20057;-79
2022/06/28 02:02:48;;;;;;;30.52;20.60;;;;;;;;;;5035888;28;20045;-79
2022/06/28 02:05:14;;;;;;;31.65;23.42;;;;;;;;;;5035610;28;20091;-79
2022/06/28 02:07:59;;;;;;;36.38;23.50;;;;;;;;;;5036377;28;20495;-79
2022/06/28 02:10:25;;;;;;;32.70;23.30;;;;;;;;;;5037196;28;20473;-79
2022/06/28 02:12:51;;;;;;;32.10;22.45;;;;;;;;;;5038010;28;20102;-79
2022/06/28 02:15:20;;;;;;;36.95;24.17;;;;;;;;;;5020226;28;20128;-79
2022/06/28 02:17:46;;;;;;;37.17;23.50;;;;;;;;;;5037164;28;20045;-76
2022/06/28 02:20:13;;;;;;;33.80;24.23;;;;;;;;;;5035837;28;20128;-75
2022/06/28 02:22:39;;;;;;;37.85;24.08;;;;;;;;;;5034344;28;20049;-75
2022/06/28 02:25:06;;;;;;;46.25;25.63;;;;;;;;;;5034456;28;20049;-76
2022/06/28 02:27:32;;;;;;;40.58;26.67;;;;;;;;;;5035236;28;20099;-77
2022/06/28 02:29:59;;;;;;;38.20;25.23;;;;;;;;;;5017651;28;20378;-78
2022/06/28 02:32:25;;;;;;;37.50;24.40;;;;;;;;;;5035256;28;20053;-78
2022/06/28 02:40:24;;;;;;;42.97;27.40;;;;;;;;;;5035145;28;20060;-79
2022/06/28 02:42:57;;;;;;;47.78;29.80;;;;;;;;;;5034964;28;20052;-79
2022/06/28 02:45:24;;;;;;;37.22;25.92;;;;;;;;;;5034053;28;20046;-79
2022/06/28 02:47:50;;;;;;;40.80;27.20;;;;;;;;;;5034977;28;20049;-79
2022/06/28 02:50:17;;;;;;;39.38;27.02;;;;;;;;;;5035249;28;20042;-78
2022/06/28 02:52:43;;;;;;;38.35;26.58;;;;;;;;;;5034923;28;20045;-79
2022/06/28 02:55:10;;;;;;;34.60;24.23;;;;;;;;;;5034595;28;20061;-79
2022/06/28 02:57:36;;;;;;;40.67;26.25;;;;;;;;;;5034574;28;20076;-79
2022/06/28 03:00:07;;;;;;;39.88;25.85;;;;;;;;;;5034871;28;20049;-79
2022/06/28 03:02:33;;;;;;;39.65;25.92;;;;;;;;;;5034710;28;20041;-78
2022/06/28 03:05:00;;;;;;;39.03;25.83;;;;;;;;;;5034747;28;20045;-78
2022/06/28 03:07:26;;;;;;;44.88;27.02;;;;;;;;;;5035453;28;20377;-78
2022/06/28 03:09:52;;;;;;;40.97;26.70;;;;;;;;;;5053358;28;20045;-78
2022/06/28 03:12:18;;;;;;;40.35;25.52;;;;;;;;;;5046678;28;20041;-81
2022/06/28 03:14:44;;;;;;;40.20;24.25;;;;;;;;;;5033689;28;20047;-79
2022/06/28 03:17:10;;;;;;;37.67;23.48;;;;;;;;;;5034530;28;20041;-79
2022/06/28 03:19:36;;;;;;;41.83;26.33;;;;;;;;;;5034398;28;20092;-79
2022/06/28 03:22:02;;;;;;;34.22;21.75;;;;;;;;;;5034310;28;20053;-79
2022/06/28 03:24:28;;;;;;;35.40;26.00;;;;;;;;;;5040488;28;20099;-79
2022/06/28 03:26:54;;;;;;;33.95;24.40;;;;;;;;;;5034376;28;20053;-79
2022/06/28 03:29:20;;;;;;;33.67;23.35;;;;;;;;;;5034604;28;20052;-79
2022/06/28 03:31:46;;;;;;;58.72;26.15;;;;;;;;;;5033120;28;20107;-79
2022/06/28 03:34:13;;;;;;;64.57;30.02;;;;;;;;;;5034146;28;20049;-79
2022/06/28 03:36:39;;;;;;;33.65;25.33;;;;;;;;;;5034037;28;20060;-79
2022/06/28 03:39:05;;;;;;;39.42;26.52;;;;;;;;;;5040497;28;20397;-79
2022/06/28 03:41:31;;;;;;;48.05;26.40;;;;;;;;;;5053245;28;20048;-79
2022/06/28 03:43:57;;;;;;;38.42;25.20;;;;;;;;;;5053107;28;20048;-79
2022/06/28 03:46:23;;;;;;;38.33;23.85;;;;;;;;;;5035160;28;20045;-79
2022/06/28 03:48:49;;;;;;;41.78;25.30;;;;;;;;;;5053012;28;20048;-79
2022/06/28 03:51:16;;;;;;;36.38;23.40;;;;;;;;;;5052890;28;20488;-79
2022/06/28 03:53:42;;;;;;;43.13;25.65;;;;;;;;;;5034723;28;20092;-79
2022/06/28 03:56:08;;;;;;;40.58;25.38;;;;;;;;;;5052762;28;20048;-79
2022/06/28 03:58:34;;;;;;;36.03;25.52;;;;;;;;;;5052645;28;20049;-78
2022/06/28 04:01:01;;;;;;;38.22;25.25;;;;;;;;;;5052853;28;20041;-79
2022/06/28 04:03:27;;;;;;;47.90;29.38;;;;;;;;;;5034976;28;20047;-79
2022/06/28 04:05:53;;;;;;;40.38;28.20;;;;;;;;;;5052684;28;20044;-78
2022/06/28 04:08:19;;;;;;;42.08;27.65;;;;;;;;;;5034881;28;20048;-78
2022/06/28 04:10:45;;;;;;;37.88;27.50;;;;;;;;;;5034932;28;20041;-78
2022/06/28 04:13:11;;;;;;;42.97;25.67;;;;;;;;;;5052515;28;20506;-78
2022/06/28 04:15:38;;;;;;;44.63;27.63;;;;;;;;;;5052441;28;20045;-78
2022/06/28 04:18:04;;;;;;;43.85;27.75;;;;;;;;;;5034699;28;20049;-79
2022/06/28 04:20:30;;;;;;;50.47;26.98;;;;;;;;;;5052623;28;20526;-78
2022/06/28 04:22:56;;;;;;;40.85;26.75;;;;;;;;;;5035065;28;20084;-78
2022/06/28 04:25:23;;;;;;;39.50;28.15;;;;;;;;;;5052713;28;20487;-79
2022/06/28 04:27:49;;;;;;;37.70;24.85;;;;;;;;;;5052872;28;20106;-80
2022/06/28 04:30:15;;;;;;;41.42;26.60;;;;;;;;;;5035300;28;20063;-78
2022/06/28 04:32:41;;;;;;;39.75;26.80;;;;;;;;;;5052801;28;20049;-78
2022/06/28 04:35:07;;;;;;;38.42;26.65;;;;;;;;;;5052719;28;20116;-78
2022/06/28 04:37:33;;;;;;;40.70;27.00;;;;;;;;;;5050547;28;20500;-78
2022/06/28 04:39:59;;;;;;;43.60;27.27;;;;;;;;;;5038300;28;20456;-77
2022/06/28 04:42:25;;;;;;;36.00;24.48;;;;;;;;;;5034459;28;20542;-79
2022/06/28 04:44:52;;;;;;;48.17;25.08;;;;;;;;;;5034744;28;20060;-77
2022/06/28 04:47:18;;;;;;;37.83;25.38;;;;;;;;;;5052258;28;20485;-78
2022/06/28 04:49:44;;;;;;;36.20;25.15;;;;;;;;;;5052251;28;20045;-78
2022/06/28 04:52:10;;;;;;;33.35;22.92;;;;;;;;;;5052025;28;20041;-76
2022/06/28 04:54:36;;;;;;;39.72;25.17;;;;;;;;;;5051962;28;20060;-78
2022/06/28 04:57:02;;;;;;;32.53;23.38;;;;;;;;;;5034405;28;20095;-78
2022/06/28 04:59:28;;;;;;;41.08;26.10;;;;;;;;;;5052234;28;20041;-78
2022/06/28 05:01:54;;;;;;;36.17;23.25;;;;;;;;;;5034570;28;20048;-78
2022/06/28 05:04:20;;;;;;;35.30;23.58;;;;;;;;;;5049385;28;20428;-78
2022/06/28 05:06:46;;;;;;;34.75;22.75;;;;;;;;;;5035467;28;20077;-78
2022/06/28 05:09:12;;;;;;;30.48;22.73;;;;;;;;;;5040908;28;20492;-78
2022/06/28 05:11:38;;;;;;;29.15;21.50;;;;;;;;;;5042958;28;20044;-79
2022/06/28 05:14:06;;;;;;;29.73;22.45;;;;;;;;;;5039341;28;20041;-78
2022/06/28 05:16:32;;;;;;;33.67;19.50;;;;;;;;;;5041200;28;20056;-78
2022/06/28 05:18:58;;;;;;;30.63;21.60;;;;;;;;;;5040986;28;20041;-78
2022/06/28 05:21:24;;;;;;;35.70;21.55;;;;;;;;;;5025406;28;20470;-78
2022/06/28 05:23:51;;;;;;;33.05;19.92;;;;;;;;;;5051274;28;20503;-76
2022/06/28 05:26:17;;;;;;;32.75;20.75;;;;;;;;;;5024856;28;20081;-79
2022/06/28 05:28:43;;;;;;;43.80;22.70;;;;;;;;;;5041235;28;20407;-79
2022/06/28 05:31:09;;;;;;;43.67;23.63;;;;;;;;;;5044957;28;20095;-79
2022/06/28 05:33:36;;;;;;;37.75;21.35;;;;;;;;;;5040158;28;20041;-78
2022/06/28 05:36:02;;;;;;;32.33;20.67;;;;;;;;;;5044610;28;20053;-79
2022/06/28 05:38:28;;;;;;;26.35;19.10;;;;;;;;;;5037321;28;20041;-79
2022/06/28 05:40:54;;;;;;;29.15;18.90;;;;;;;;;;5037004;28;20041;-78
2022/06/28 05:43:20;;;;;;;23.20;17.45;;;;;;;;;;5036739;28;20037;-76
2022/06/28 05:45:47;;;;;;;24.40;17.50;;;;;;;;;;5041569;28;20070;-79
2022/06/28 05:48:13;;;;;;;26.08;17.08;;;;;;;;;;5022337;28;20116;-78
2022/06/28 05:50:39;;;;;;;23.38;16.20;;;;;;;;;;5042380;28;20073;-78
2022/06/28 05:53:05;;;;;;;23.73;17.00;;;;;;;;;;5041762;28;20043;-78
2022/06/28 05:55:32;;;;;;;33.78;18.88;;;;;;;;;;5039053;28;20041;-76
2022/06/28 05:57:58;;;;;;;26.58;18.23;;;;;;;;;;5055719;28;20095;-79
2022/06/28 06:00:24;;;;;;;26.02;17.27;;;;;;;;;;5055518;28;20132;-77
2022/06/28 06:02:50;;;;;;;23.67;17.88;;;;;;;;;;5055641;28;20128;-77
2022/06/28 06:05:16;;;;;;;23.60;17.55;;;;;;;;;;5045227;28;20546;-76
2022/06/28 06:07:43;;;;;;;17.45;14.68;;;;;;;;;;5041242;28;20531;-77
2022/06/28 06:10:09;;;;;;;53.63;23.55;;;;;;;;;;5023163;28;20076;-76
2022/06/28 06:12:35;;;;;;;43.03;19.98;;;;;;;;;;5042325;28;20133;-76
2022/06/28 06:15:01;;;;;;;43.10;19.85;;;;;;;;;;5041217;28;20045;-76
2022/06/28 06:17:28;;;;;;;22.23;15.35;;;;;;;;;;5038778;28;20041;-76
2022/06/28 06:19:54;;;;;;;28.33;16.38;;;;;;;;;;5024806;28;20042;-76
2022/06/28 06:22:20;;;;;;;19.20;15.10;;;;;;;;;;5042876;28;20039;-77
2022/06/28 06:24:47;;;;;;;29.45;15.63;;;;;;;;;;5038554;28;20119;-78
2022/06/28 06:27:14;;;;;;;29.70;16.70;;;;;;;;;;5040116;28;20041;-78
2022/06/28 06:29:41;;;;;;;22.75;13.50;;;;;;;;;;5023246;28;20041;-78
2022/06/28 06:32:07;;;;;;;18.27;12.07;;;;;;;;;;5042338;28;20500;-79
2022/06/28 06:34:33;;;;;;;19.45;12.05;;;;;;;;;;5043986;28;20048;-78
2022/06/28 06:36:59;;;;;;;19.63;13.30;;;;;;;;;;5039747;28;20122;-77
2022/06/28 06:39:25;;;;;;;29.60;14.55;;;;;;;;;;5042218;28;20041;-77
2022/06/28 06:41:51;;;;;;;25.80;13.80;;;;;;;;;;5042622;28;20102;-78
2022/06/28 06:44:17;;;;;;;44.00;17.50;;;;;;;;;;5043162;28;20037;-77
2022/06/28 06:46:43;;;;;;;23.83;12.60;;;;;;;;;;5044270;28;20140;-77
2022/06/28 06:49:09;;;;;;;30.27;14.07;;;;;;;;;;5056068;28;20052;-77
2022/06/28 06:51:36;;;;;;;17.17;9.07;;;;;;;;;;5058349;28;20385;-77
2022/06/28 06:54:02;;;;;;;17.83;8.95;;;;;;;;;;5057308;28;20053;-78
2022/06/28 06:56:28;;;;;;;18.60;8.88;;;;;;;;;;5055373;28;20080;-77
2022/06/28 06:58:54;;;;;;;15.93;8.65;;;;;;;;;;5044713;28;20418;-77
2022/06/28 07:01:20;;;;;;;15.68;8.68;;;;;;;;;;5044792;28;20033;-77
2022/06/28 07:03:46;;;;;;;16.33;9.07;;;;;;;;;;5046780;28;20874;-76
2022/06/28 07:06:13;;;;;;;14.43;9.35;;;;;;;;;;5028576;28;20049;-77
2022/06/28 07:08:39;;;;;;;15.77;8.90;;;;;;;;;;5040590;28;20095;-77
2022/06/28 07:11:05;;;;;;;12.48;8.13;;;;;;;;;;5036560;28;20116;-76
2022/06/28 07:13:31;;;;;;;13.93;8.45;;;;;;;;;;5035531;28;20049;-75
2022/06/28 07:15:57;;;;;;;24.15;11.55;;;;;;;;;;5035179;28;20121;-76
2022/06/28 07:18:24;;;;;;;16.90;9.35;;;;;;;;;;5035689;28;20064;-74
2022/06/28 07:20:52;;;;;;;13.30;8.73;;;;;;;;;;5041627;28;20042;-74
2022/06/28 07:23:18;;;;;;;22.65;11.57;;;;;;;;;;5040509;28;20046;-77
2022/06/28 07:25:44;;;;;;;38.38;13.18;;;;;;;;;;5037251;28;20037;-77
2022/06/28 07:28:10;;;;;;;20.60;10.75;;;;;;;;;;5039740;28;20052;-77
2022/06/28 07:30:37;;;;;;;15.55;9.43;;;;;;;;;;5037424;28;20046;-77
2022/06/28 07:33:03;;;;;;;17.00;8.90;;;;;;;;;;5035111;28;20051;-76
2022/06/28 07:35:29;;;;;;;22.35;10.50;;;;;;;;;;5034058;28;20102;-75
2022/06/28 07:37:55;;;;;;;22.88;10.77;;;;;;;;;;5034943;28;20050;-75
2022/06/28 07:40:22;;;;;;;18.95;9.55;;;;;;;;;;5033903;28;20452;-76
2022/06/28 07:42:48;;;;;;;14.35;8.65;;;;;;;;;;5041835;28;20048;-76
2022/06/28 07:45:14;;;;;;;16.65;8.93;;;;;;;;;;5058067;28;20052;-74
2022/06/28 07:47:40;;;;;;;15.48;8.45;;;;;;;;;;5056237;28;20052;-75
2022/06/28 07:52:52;;;;;;;16.83;8.13;;;;;;;;;;5042174;28;20057;-77
2022/06/28 07:55:18;;;;;;;14.52;8.00;;;;;;;;;;5043010;28;20128;-76
2022/06/28 07:57:44;;;;;;;15.52;7.95;;;;;;;;;;5009345;28;20045;-76
2022/06/28 08:00:10;;;;;;;17.13;7.50;;;;;;;;;;5042682;28;20045;-79
2022/06/28 08:02:36;;;;;;;15.32;6.93;;;;;;;;;;5026412;28;20045;-77
2022/06/28 08:05:03;;;;;;;24.17;9.10;;;;;;;;;;5045292;28;20049;-76
2022/06/28 08:07:29;;;;;;;13.27;6.95;;;;;;;;;;5044216;28;20037;-77
2022/06/28 08:09:55;;;;;;;12.43;6.82;;;;;;;;;;5045115;28;20091;-76
2022/06/28 08:12:21;;;;;;;11.73;6.25;;;;;;;;;;5045027;28;20045;-75
2022/06/28 08:14:47;;;;;;;10.52;5.88;;;;;;;;;;5046167;28;20140;-80
2022/06/28 08:17:13;;;;;;;12.77;5.95;;;;;;;;;;5025537;28;20045;-74
2022/06/28 08:19:40;;;;;;;7.88;5.25;;;;;;;;;;5046220;28;20175;-76
2022/06/28 08:22:06;;;;;;;9.38;5.75;;;;;;;;;;5045886;28;20045;-74
2022/06/28 08:24:32;;;;;;;12.50;5.38;;;;;;;;;;5039504;28;20132;-77
2022/06/28 08:26:58;;;;;;;19.02;7.55;;;;;;;;;;5035342;28;20037;-77
2022/06/28 08:29:24;;;;;;;9.65;3.92;;;;;;;;;;5055960;28;20048;-75
2022/06/28 08:31:50;;;;;;;9.10;4.38;;;;;;;;;;5058175;28;20496;-76
2022/06/28 08:34:16;;;;;;;8.15;4.63;;;;;;;;;;5058395;28;20518;-75
2022/06/28 08:36:42;;;;;;;9.55;4.85;;;;;;;;;;5043534;28;20056;-76
2022/06/28 08:39:08;;;;;;;6.70;3.90;;;;;;;;;;5062254;28;20102;-74
2022/06/28 08:41:35;;;;;;;6.78;3.20;;;;;;;;;;5062465;28;20094;-75
2022/06/28 08:44:01;;;;;;;5.82;2.60;;;;;;;;;;5064008;28;20095;-74
2022/06/28 08:46:28;;;;;;;5.60;2.10;;;;;;;;;;5047752;28;20552;-76
2022/06/28 08:49:04;;;;;;;6.93;2.60;;;;;;;;;;5065652;28;20067;-76
2022/06/28 08:51:32;;;;;;;11.25;4.05;;;;;;;;;;5064257;28;20045;-78
2022/06/28 08:54:02;;;;;;;8.23;2.80;;;;;;;;;;5056164;28;20080;-75
2022/06/28 08:56:28;;;;;;;6.93;3.20;;;;;;;;;;5049873;28;20127;-75
2022/06/28 08:58:57;;;;;;;5.45;2.90;;;;;;;;;;5047508;28;20083;-75
2022/06/28 09:01:23;;;;;;;6.25;1.80;;;;;;;;;;5050411;28;20455;-74
2022/06/28 09:03:51;;;;;;;6.47;2.20;;;;;;;;;;5049341;28;20052;-75
2022/06/28 09:06:17;;;;;;;4.88;2.28;;;;;;;;;;5048269;28;20091;-75
2022/06/28 09:08:43;;;;;;;7.50;2.38;;;;;;;;;;5049945;28;20455;-75
2022/06/28 09:11:09;;;;;;;5.72;2.20;;;;;;;;;;5050957;28;20044;-75
2022/06/28 09:13:35;;;;;;;3.72;1.65;;;;;;;;;;5034017;28;20045;-75
2022/06/28 09:16:03;;;;;;;4.45;1.58;;;;;;;;;;5055105;28;20041;-75
2022/06/28 09:18:35;;;;;;;4.82;1.80;;;;;;;;;;5053873;28;20400;-75
2022/06/28 09:21:01;;;;;;;6.15;2.25;;;;;;;;;;5055521;28;20045;-74
2022/06/28 09:23:29;;;;;;;12.38;2.78;;;;;;;;;;5060992;28;20041;-77
2022/06/28 09:25:57;;;;;;;9.07;3.10;;;;;;;;;;5050751;28;20128;-73
2022/06/28 09:28:24;;;;;;;6.72;2.50;;;;;;;;;;5054034;28;20061;-78
2022/06/28 09:30:50;;;;;;;36.92;10.32;;;;;;;;;;5066215;28;20052;-77
2022/06/28 09:33:26;;;;;;;4.65;2.40;;;;;;;;;;5059094;28;20048;-76
2022/06/28 09:35:52;;;;;;;4.10;2.20;;;;;;;;;;5055088;28;20049;-74
2022/06/28 09:38:32;;;;;;;7.22;2.40;;;;;;;;;;5069628;28;20068;-76
2022/06/28 09:41:01;;;;;;;4.43;2.00;;;;;;;;;;5065949;28;20393;-77
2022/06/28 09:43:34;;;;;;;4.82;1.85;;;;;;;;;;5066091;28;20041;-74
2022/06/28 09:46:04;;;;;;;6.90;2.33;;;;;;;;;;5069147;28;20060;-75
2022/06/28 09:48:37;;;;;;;5.18;2.90;;;;;;;;;;5058660;28;20127;-74
2022/06/28 09:51:04;;;;;;;5.90;2.50;;;;;;;;;;5052841;28;20072;-75
2022/06/28 09:53:32;;;;;;;9.45;2.58;;;;;;;;;;5057723;28;20083;-75
2022/06/28 09:55:59;;;;;;;7.07;2.38;;;;;;;;;;5066616;28;20045;-73
2022/06/28 09:58:25;;;;;;;4.45;1.83;;;;;;;;;;5065456;28;20102;-75
2022/06/28 10:00:51;;;;;;;6.28;2.20;;;;;;;;;;5070037;28;20407;-74
2022/06/28 10:03:17;;;;;;;5.25;2.25;;;;;;;;;;5048319;28;20101;-75
2022/06/28 10:05:43;;;;;;;5.10;2.10;;;;;;;;;;5048203;28;20045;-73
2022/06/28 10:08:10;;;;;;;5.13;1.67;;;;;;;;;;5031869;28;20045;-77
2022/06/28 10:10:37;;;;;;;9.30;1.85;;;;;;;;;;5056820;28;20097;-75
2022/06/28 10:15:53;;;;;;;5.55;1.80;;;;;;;;;;5067934;28;20279;-75
2022/06/28 10:18:21;;;;;;;4.68;1.85;;;;;;;;;;5065128;28;20048;-76
2022/06/28 10:20:47;;;;;;;3.40;1.53;;;;;;;;;;5069379;28;20044;-76
2022/06/28 10:23:22;;;;;;;5.90;1.60;;;;;;;;;;5069929;28;20049;-76
2022/06/28 10:26:01;;;;;;;4.60;1.23;;;;;;;;;;5067361;28;20045;-76
2022/06/28 10:28:28;;;;;;;4.28;1.02;;;;;;;;;;5058828;28;20075;-76
2022/06/28 10:31:23;;;;;;;9.27;3.03;;;;;;;;;;5047450;28;20045;-76
2022/06/28 10:33:50;;;;;;;6.60;1.95;;;;;;;;;;5048882;28;20045;-76
2022/06/28 10:36:17;;;;;;;4.28;1.65;;;;;;;;;;5041686;28;20042;-75
2022/06/28 10:39:01;;;;;;;3.47;1.10;;;;;;;;;;5042744;28;20508;-74
2022/06/28 10:41:38;;;;;;;3.50;1.50;;;;;;;;;;5040334;28;20057;-77
2022/06/28 10:44:08;;;;;;;3.97;1.30;;;;;;;;;;5040542;28;20048;-76
2022/06/28 10:46:34;;;;;;;3.70;1.45;;;;;;;;;;5039440;28;20041;-77
2022/06/28 10:49:01;;;;;;;3.63;1.15;;;;;;;;;;5042954;28;20042;-74
2022/06/28 10:51:28;;;;;;;7.85;2.58;;;;;;;;;;5041132;28;20110;-75
2022/06/28 10:53:57;;;;;;;7.03;2.40;;;;;;;;;;5047891;28;20132;-77
2022/06/28 10:56:24;;;;;;;6.47;1.92;;;;;;;;;;5048657;28;20041;-75
2022/06/28 10:58:54;;;;;;;3.35;1.30;;;;;;;;;;5055429;28;20045;-75
2022/06/28 11:01:40;;;;;;;5.88;1.40;;;;;;;;;;5055269;28;20101;-78
2022/06/28 11:04:19;;;;;;;4.82;1.63;;;;;;;;;;5052104;28;20037;-76
2022/06/28 11:06:45;;;;;;;5.82;1.73;;;;;;;;;;5051546;28;20045;-78
2022/06/28 11:09:13;;;;;;;3.95;1.60;;;;;;;;;;5055482;28;20068;-77
2022/06/28 11:11:59;;;;;;;5.28;1.50;;;;;;;;;;5052322;28;20053;-74
2022/06/28 11:14:32;;;;;;;4.70;1.58;;;;;;;;;;5051046;28;20101;-75
2022/06/28 11:17:01;;;;;;;5.22;1.40;;;;;;;;;;5050984;28;20045;-75
2022/06/28 11:19:28;;;;;;;4.07;1.58;;;;;;;;;;5048825;28;20045;-75
2022/06/28 11:21:55;;;;;;;4.80;1.77;;;;;;;;;;5053652;28;20462;-76
2022/06/28 11:24:24;;;;;;;5.10;1.70;;;;;;;;;;5046935;28;20400;-76
2022/06/28 11:29:35;;;;;;;5.20;1.63;;;;;;;;;;5048507;28;20045;-77
2022/06/28 11:32:01;;;;;;;5.85;1.95;;;;;;;;;;5050363;28;20037;-75
2022/06/28 11:34:27;;;;;;;4.20;1.50;;;;;;;;;;5054790;28;20063;-76
2022/06/28 11:36:56;;;;;;;8.50;2.50;;;;;;;;;;5058092;28;20136;-77
2022/06/28 11:39:23;;;;;;;8.63;2.22;;;;;;;;;;5052928;28;20044;-75
2022/06/28 11:41:51;;;;;;;7.72;1.80;;;;;;;;;;5056861;28;20041;-76
2022/06/28 11:44:17;;;;;;;3.35;1.40;;;;;;;;;;5058081;28;20037;-76
2022/06/28 11:46:44;;;;;;;4.82;1.58;;;;;;;;;;5059424;28;20051;-76
2022/06/28 11:49:11;;;;;;;6.70;1.77;;;;;;;;;;5049191;28;20460;-76
2022/06/28 11:51:46;;;;;;;4.75;1.30;;;;;;;;;;5045029;28;20087;-76
2022/06/28 11:54:12;;;;;;;5.78;1.85;;;;;;;;;;5058622;28;20083;-78
2022/06/28 11:56:42;;;;;;;4.95;1.30;;;;;;;;;;5066861;28;20072;-74
2022/06/28 11:59:08;;;;;;;4.80;1.65;;;;;;;;;;5067070;28;20045;-75
2022/06/28 12:01:38;;;;;;;4.35;1.50;;;;;;;;;;5052437;28;20065;-75
2022/06/28 12:04:06;;;;;;;4.80;1.55;;;;;;;;;;5045539;28;20042;-76
2022/06/28 12:06:33;;;;;;;4.60;1.60;;;;;;;;;;5052792;28;20511;-76
2022/06/28 12:09:00;;;;;;;10.93;2.87;;;;;;;;;;5062337;28;20072;-76
2022/06/28 12:11:26;;;;;;;4.00;1.42;;;;;;;;;;5037206;28;20128;-75
2022/06/28 12:13:58;;;;;;;4.65;1.15;;;;;;;;;;5065027;28;20071;-74
2022/06/28 12:16:28;;;;;;;4.00;1.25;;;;;;;;;;5062210;28;20041;-75
2022/06/28 12:18:56;;;;;;;3.10;1.40;;;;;;;;;;5052229;28;20063;-75
2022/06/28 12:21:22;;;;;;;4.63;1.40;;;;;;;;;;5044939;28;20080;-75
2022/06/28 12:23:53;;;;;;;6.93;1.20;;;;;;;;;;5044050;28;20105;-75
2022/06/28 12:26:20;;;;;;;2.13;1.40;;;;;;;;;;5046650;28;20052;-75
2022/06/28 12:28:47;;;;;;;5.00;1.38;;;;;;;;;;5043927;28;20408;-75
2022/06/28 12:31:13;;;;;;;4.80;1.23;;;;;;;;;;5048213;28;20048;-74
2022/06/28 12:33:39;;;;;;;5.43;1.50;;;;;;;;;;5047968;28;20069;-75
2022/06/28 12:36:05;;;;;;;6.97;1.40;;;;;;;;;;5047383;28;20042;-74
2022/06/28 12:38:31;;;;;;;5.45;1.67;;;;;;;;;;5048656;28;20045;-74
2022/06/28 12:40:57;;;;;;;6.50;1.80;;;;;;;;;;5047804;28;20084;-74
2022/06/28 12:43:23;;;;;;;4.85;1.75;;;;;;;;;;5050673;28;20068;-76
2022/06/28 12:45:50;;;;;;;5.53;1.58;;;;;;;;;;5045853;28;20105;-75
2022/06/28 12:48:16;;;;;;;3.38;1.30;;;;;;;;;;5049853;28;20050;-74
2022/06/28 12:50:42;;;;;;;2.67;1.13;;;;;;;;;;5055657;28;20033;-73
2022/06/28 12:53:08;;;;;;;5.45;1.45;;;;;;;;;;5037313;28;20080;-76
2022/06/28 12:55:34;;;;;;;3.83;1.17;;;;;;;;;;5063661;28;20459;-76
2022/06/28 12:58:00;;;;;;;5.38;1.27;;;;;;;;;;5065559;28;20056;-75
2022/06/28 13:00:27;;;;;;;4.93;1.20;;;;;;;;;;5065753;28;20076;-76
2022/06/28 13:02:53;;;;;;;4.03;1.27;;;;;;;;;;5065507;28;20049;-76
2022/06/28 13:05:21;;;;;;;7.22;1.58;;;;;;;;;;5063877;28;20056;-77
2022/06/28 13:07:47;;;;;;;;;;;;;;;;;;5064873;28;20068;-76
2022/06/28 13:10:13;;;;;;;3.30;1.33;;;;;;;;;;5062971;28;19944;-76
2022/06/28 13:12:39;;;;;;;5.70;1.60;;;;;;;;;;5062773;28;20045;-75
2022/06/28 13:15:06;;;;;;;4.90;1.05;;;;;;;;;;5058543;28;20049;-76
2022/06/28 13:17:32;;;;;;;3.83;1.45;;;;;;;;;;5044119;28;20048;-77
2022/06/28 13:19:58;;;;;;;4.55;1.35;;;;;;;;;;5060722;28;20041;-74
2022/06/28 13:22:25;;;;;;;4.47;1.00;;;;;;;;;;5060768;28;20052;-75
2022/06/28 13:24:52;;;;;;;3.47;1.20;;;;;;;;;;5061040;28;20176;-77
2022/06/28 13:27:18;;;;;;;5.88;1.05;;;;;;;;;;5060290;28;20044;-75
2022/06/28 13:29:44;;;;;;;4.40;1.30;;;;;;;;;;5064541;28;20055;-75
2022/06/28 13:32:10;;;;;;;6.15;1.00;;;;;;;;;;5068015;28;20045;-74
2022/06/28 13:34:36;;;;;;;8.27;1.60;;;;;;;;;;5031371;28;20054;-75
2022/06/28 13:37:03;;;;;;;6.07;1.30;;;;;;;;;;5034305;28;20083;-74
2022/06/28 13:39:29;;;;;;;5.45;1.10;;;;;;;;;;5066748;28;20053;-74
2022/06/28 13:41:55;;;;;;;3.50;1.10;;;;;;;;;;5056335;28;20514;-74
2022/06/28 13:44:21;;;;;;;2.55;1.00;;;;;;;;;;5060668;28;20064;-75
2022/06/28 13:46:47;;;;;;;3.88;1.48;;;;;;;;;;5059749;28;20041;-76
2022/06/28 13:49:13;;;;;;;4.68;1.10;;;;;;;;;;5055597;28;20048;-78
2022/06/28 13:51:40;;;;;;;7.10;2.03;;;;;;;;;;5055423;28;20451;-78
2022/06/28 13:54:06;;;;;;;3.47;1.23;;;;;;;;;;5037989;28;20052;-78
2022/06/28 13:56:33;;;;;;;5.50;1.38;;;;;;;;;;5056073;28;20041;-76
2022/06/28 13:58:59;;;;;;;6.07;1.67;;;;;;;;;;5038489;28;20057;-77
2022/06/28 14:01:25;;;;;;;5.13;1.60;;;;;;;;;;5037894;28;20052;-77
2022/06/28 14:03:51;;;;;;;32.92;9.98;;;;;;;;;;5055228;28;20045;-76
2022/06/28 14:06:17;;;;;;;9.85;3.05;;;;;;;;;;5054768;28;20507;-78
2022/06/28 14:08:43;;;;;;;6.38;3.58;;;;;;;;;;5061445;28;20037;-78
2022/06/28 14:11:09;;;;;;;11.27;3.47;;;;;;;;;;5066943;28;20041;-79
2022/06/28 14:13:35;;;;;;;10.05;3.83;;;;;;;;;;5048813;28;20045;-76
2022/06/28 14:16:02;;;;;;;6.55;3.17;;;;;;;;;;5045858;28;20037;-76
2022/06/28 14:18:28;;;;;;;5.72;1.52;;;;;;;;;;5063916;28;20342;-77
2022/06/28 14:20:54;;;;;;;4.57;1.40;;;;;;;;;;5049491;28;20045;-76
2022/06/28 14:23:20;;;;;;;4.03;0.90;;;;;;;;;;5056482;28;20041;-75
2022/06/28 14:25:46;;;;;;;17.73;5.07;;;;;;;;;;5051715;28;20041;-76
2022/06/28 14:28:12;;;;;;;4.97;1.33;;;;;;;;;;5049684;28;20048;-76
2022/06/28 14:30:38;;;;;;;4.05;1.20;;;;;;;;;;5051245;28;20065;-76
2022/06/28 14:33:04;;;;;;;15.48;3.72;;;;;;;;;;5032817;28;20129;-76
2022/06/28 14:35:32;;;;;;;5.30;1.38;;;;;;;;;;5056807;28;20044;-76
2022/06/28 14:37:58;;;;;;;5.57;1.40;;;;;;;;;;5057957;28;20036;-76
2022/06/28 14:40:24;;;;;;;8.68;2.95;;;;;;;;;;5055536;28;20105;-75
2022/06/28 14:42:50;;;;;;;22.30;7.10;;;;;;;;;;5055730;28;20099;-75